Terminal Aerodrome Forecast
Issued by NWS Missoula, MT

Current Version | Previous Version | Text Only | Print | Product List | Glossary On
Versions: 1 2 3 4 5 6 7 8 9 10 11 12 13 14
000
FTUS45 KMSO 302328
TAFMSO
TAF
KMSO 302328Z 3100/3124 32012KT P6SM VCSH OVC060
     FM310200 33010KT P6SM BKN080
     FM310600 33007KT P6SM VCSH BKN040 OVC060
     FM310900 32006KT P6SM -SHRA BKN025 OVC035
     FM311200 34006KT P6SM BKN050=

USA.gov is the U.S. government's official web portal to all federal, state and local government web resources and services.